Time;durP1;ratioP1;P1;durP2;ratioP2;P2;SDS_P1;SDS_P2;PMS_P1;PMS_P2;Temp;Humidity;BMP_temperature;BMP_pressure;BME280_temperature;BME280_humidity;BME280_pressure;Samples;Min_cycle;Max_cycle;Signal;HPM_P1;HPM_P2
2023/09/16 00:03:22;;;;;;;12.20;11.10;;;;;;;;;;2615703;54;20418;-83
2023/09/16 00:08:52;;;;;;;13.07;11.27;;;;;;;;;;2615627;54;20479;-82
2023/09/16 00:14:24;;;;;;;10.57;9.67;;;;;;;;;;2615365;54;20535;-83
2023/09/16 00:19:54;;;;;;;11.20;10.10;;;;;;;;;;2614947;54;20470;-76
2023/09/16 00:25:23;;;;;;;11.17;10.07;;;;;;;;;;2617092;31;20862;-76
2023/09/16 00:30:53;;;;;;;9.67;8.70;;;;;;;;;;2615796;54;20386;-76
2023/09/16 00:36:23;;;;;;;10.87;9.70;;;;;;;;;;2615178;54;20378;-77
2023/09/16 00:41:52;;;;;;;9.13;8.33;;;;;;;;;;2615572;54;20407;-76
2023/09/16 00:47:22;;;;;;;10.47;9.37;;;;;;;;;;2615788;54;20390;-77
2023/09/16 00:52:54;;;;;;;12.70;11.47;;;;;;;;;;2614089;54;20390;-75
2023/09/16 00:58:24;;;;;;;11.40;10.30;;;;;;;;;;2615283;54;20411;-75
2023/09/16 01:03:54;;;;;;;15.30;10.70;;;;;;;;;;2615447;54;20382;-75
2023/09/16 01:09:24;;;;;;;12.33;9.70;;;;;;;;;;2615043;54;20423;-76
2023/09/16 01:14:54;;;;;;;13.33;10.00;;;;;;;;;;2615598;39;20789;-76
2023/09/16 01:26:31;;;;;;;12.07;11.03;;;;;;;;;;2616057;54;20399;-81
2023/09/16 01:32:04;;;;;;;12.07;10.87;;;;;;;;;;2615967;54;20921;-79
2023/09/16 01:37:34;;;;;;;10.93;9.93;;;;;;;;;;2615800;54;20408;-82
2023/09/16 01:43:04;;;;;;;10.40;9.50;;;;;;;;;;2615565;54;20383;-81
2023/09/16 01:48:33;;;;;;;10.50;9.70;;;;;;;;;;2616105;39;20791;-82
2023/09/16 01:54:03;;;;;;;11.47;10.37;;;;;;;;;;2616435;54;20421;-81
2023/09/16 01:59:33;;;;;;;10.07;9.27;;;;;;;;;;2616526;39;20773;-80
2023/09/16 02:05:02;;;;;;;11.03;9.70;;;;;;;;;;2615927;54;20419;-83
2023/09/16 02:10:32;;;;;;;12.30;11.20;;;;;;;;;;2615316;54;20359;-82
2023/09/16 02:16:02;;;;;;;12.33;9.67;;;;;;;;;;2616176;54;20379;-81
2023/09/16 02:30:56;;;;;;;11.33;10.33;;;;;;;;;;2614188;54;20393;-82
2023/09/16 02:36:26;;;;;;;10.80;9.70;;;;;;;;;;2614625;54;20414;-84
2023/09/16 02:41:56;;;;;;;13.37;11.30;;;;;;;;;;2613367;54;20420;-82
2023/09/16 02:44:40;;;;;;;12.13;10.93;;;;;;;;;;2613589;54;20511;-83
2023/09/16 02:47:06;;;;;;;11.40;10.40;;;;;;;;;;2613179;47;20716;-83
2023/09/16 02:52:35;;;;;;;11.97;10.53;;;;;;;;;;2614071;54;20372;-82
2023/09/16 02:58:05;;;;;;;10.10;9.20;;;;;;;;;;2613873;54;20382;-81
2023/09/16 03:03:34;;;;;;;14.90;10.90;;;;;;;;;;2614011;54;20370;-83
2023/09/16 03:09:03;;;;;;;10.93;9.83;;;;;;;;;;2616153;54;20351;-82
2023/09/16 03:14:33;;;;;;;10.37;9.27;;;;;;;;;;2616333;39;20798;-82
2023/09/16 03:20:03;;;;;;;10.47;9.47;;;;;;;;;;2617354;54;20419;-83
2023/09/16 03:22:29;;;;;;;11.00;9.93;;;;;;;;;;2616616;54;20958;-84
2023/09/16 03:24:55;;;;;;;10.33;9.17;;;;;;;;;;2616646;54;20419;-82
2023/09/16 03:30:25;;;;;;;10.13;9.27;;;;;;;;;;2616952;54;20423;-82
2023/09/16 03:35:55;;;;;;;12.43;10.30;;;;;;;;;;2617484;54;21002;-82
2023/09/16 03:41:25;;;;;;;12.83;9.77;;;;;;;;;;2617401;54;20965;-83
2023/09/16 03:46:54;;;;;;;9.33;8.63;;;;;;;;;;2615711;54;20383;-77
2023/09/16 03:52:24;;;;;;;10.00;9.00;;;;;;;;;;2615679;54;20426;-76
2023/09/16 03:57:54;;;;;;;9.87;9.07;;;;;;;;;;2614884;54;20484;-75
2023/09/16 04:03:24;;;;;;;17.20;10.70;;;;;;;;;;2615038;54;20374;-76
2023/09/16 04:08:54;;;;;;;11.83;10.30;;;;;;;;;;2615662;54;20382;-77
2023/09/16 04:14:24;;;;;;;9.37;8.57;;;;;;;;;;2614384;54;20426;-77
2023/09/16 04:19:53;;;;;;;11.60;9.70;;;;;;;;;;2614645;54;20394;-76
2023/09/16 04:22:23;;;;;;;11.17;10.10;;;;;;;;;;2615299;54;20430;-77
2023/09/16 04:24:49;;;;;;;10.20;9.20;;;;;;;;;;2614935;47;20420;-77
2023/09/16 04:30:19;;;;;;;9.77;7.97;;;;;;;;;;2614854;54;20420;-76
2023/09/16 04:35:50;;;;;;;10.67;9.77;;;;;;;;;;2615623;54;20391;-76
2023/09/16 04:41:21;;;;;;;10.13;9.17;;;;;;;;;;2615384;39;20793;-76
2023/09/16 04:46:54;;;;;;;11.10;9.63;;;;;;;;;;2615060;54;20443;-73
2023/09/16 04:52:30;;;;;;;10.60;9.50;;;;;;;;;;2613839;54;20904;-75
2023/09/16 04:57:59;;;;;;;10.30;9.20;;;;;;;;;;2613692;54;20426;-76
2023/09/16 05:03:29;;;;;;;11.33;10.23;;;;;;;;;;2612933;54;20387;-73
2023/09/16 05:08:59;;;;;;;10.07;9.10;;;;;;;;;;2615869;54;20917;-75
2023/09/16 05:14:28;;;;;;;11.40;10.10;;;;;;;;;;2614074;54;20395;-74
2023/09/16 05:19:58;;;;;;;12.67;10.47;;;;;;;;;;2614714;54;20434;-76
2023/09/16 05:31:35;;;;;;;12.90;11.60;;;;;;;;;;2614454;54;20432;-74
2023/09/16 05:37:04;;;;;;;11.23;10.03;;;;;;;;;;2614528;54;21030;-73
2023/09/16 05:42:35;;;;;;;17.90;11.20;;;;;;;;;;2615451;54;21002;-71
2023/09/16 05:48:05;;;;;;;12.03;10.57;;;;;;;;;;2614361;54;20391;-74
2023/09/16 05:53:34;;;;;;;11.63;10.20;;;;;;;;;;2614905;54;20428;-72
2023/09/16 05:59:04;;;;;;;12.10;11.00;;;;;;;;;;2613441;54;20424;-73
2023/09/16 06:04:33;;;;;;;13.20;11.03;;;;;;;;;;2615212;54;20426;-73
2023/09/16 06:10:03;;;;;;;12.60;11.10;;;;;;;;;;2620893;54;20351;-76
2023/09/16 06:15:33;;;;;;;11.47;10.43;;;;;;;;;;2624060;54;20505;-78
2023/09/16 06:21:03;;;;;;;10.77;9.77;;;;;;;;;;2616386;46;20402;-82
2023/09/16 06:36:03;;;;;;;12.73;11.53;;;;;;;;;;2613910;54;20395;-77
2023/09/16 06:41:32;;;;;;;14.33;13.33;;;;;;;;;;2612195;54;20512;-81
2023/09/16 06:47:01;;;;;;;13.70;12.17;;;;;;;;;;2614395;54;20427;-80
2023/09/16 06:52:30;;;;;;;20.60;15.80;;;;;;;;;;2614131;54;20378;-81
2023/09/16 06:57:59;;;;;;;14.50;13.50;;;;;;;;;;2612932;54;20379;-81
2023/09/16 07:03:28;;;;;;;15.00;13.60;;;;;;;;;;2613599;54;20428;-77
2023/09/16 07:08:58;;;;;;;14.97;13.50;;;;;;;;;;2614130;54;20376;-77
2023/09/16 07:14:27;;;;;;;14.47;13.47;;;;;;;;;;2613544;54;20936;-77
2023/09/16 07:19:57;;;;;;;14.17;13.27;;;;;;;;;;2615458;54;20395;-75
2023/09/16 07:25:27;;;;;;;15.80;14.90;;;;;;;;;;2612467;54;20390;-80
2023/09/16 07:30:57;;;;;;;15.90;14.90;;;;;;;;;;2615145;54;21287;-79
2023/09/16 07:36:26;;;;;;;14.70;13.67;;;;;;;;;;2613978;54;20404;-80
2023/09/16 07:41:56;;;;;;;14.67;13.87;;;;;;;;;;2613855;39;20713;-78
2023/09/16 07:47:26;;;;;;;14.53;13.53;;;;;;;;;;2612930;54;20419;-79
2023/09/16 07:50:11;;;;;;;14.30;13.37;;;;;;;;;;2612225;54;20392;-80
2023/09/16 07:52:37;;;;;;;14.50;13.80;;;;;;;;;;2613109;54;20467;-80
2023/09/16 07:58:07;;;;;;;14.17;13.37;;;;;;;;;;2612125;54;20382;-79
2023/09/16 08:03:37;;;;;;;13.63;12.93;;;;;;;;;;2612396;54;20419;-80
2023/09/16 08:09:07;;;;;;;14.23;13.33;;;;;;;;;;2612072;54;20471;-80
2023/09/16 08:14:36;;;;;;;13.27;12.47;;;;;;;;;;2611581;54;20732;-80
2023/09/16 08:20:07;;;;;;;14.30;13.50;;;;;;;;;;2610825;54;20398;-79
2023/09/16 08:25:36;;;;;;;15.93;13.43;;;;;;;;;;2612318;54;21073;-74
2023/09/16 08:31:06;;;;;;;15.27;14.07;;;;;;;;;;2611384;54;20380;-74
2023/09/16 08:36:35;;;;;;;14.30;13.50;;;;;;;;;;2611521;54;20379;-73
2023/09/16 08:42:11;;;;;;;14.63;13.73;;;;;;;;;;2611526;54;20398;-73
2023/09/16 08:47:44;;;;;;;14.60;13.60;;;;;;;;;;2611369;54;21528;-74
2023/09/16 08:53:14;;;;;;;14.90;14.10;;;;;;;;;;2613813;54;20422;-73
2023/09/16 08:58:45;;;;;;;16.13;14.17;;;;;;;;;;2611762;54;20395;-73
2023/09/16 09:01:30;;;;;;;14.40;13.70;;;;;;;;;;2614325;54;20416;-73
2023/09/16 09:03:56;;;;;;;13.93;13.23;;;;;;;;;;2611852;54;20415;-76
2023/09/16 09:09:26;;;;;;;14.77;13.90;;;;;;;;;;2614407;54;20960;-77
2023/09/16 09:14:56;;;;;;;14.50;13.80;;;;;;;;;;2611297;54;20973;-77
2023/09/16 09:20:29;;;;;;;14.60;13.80;;;;;;;;;;2609678;54;20395;-77
2023/09/16 09:32:06;;;;;;;14.27;13.37;;;;;;;;;;2614310;54;20406;-73
2023/09/16 09:37:35;;;;;;;14.10;13.17;;;;;;;;;;2614211;54;20566;-74
2023/09/16 09:43:05;;;;;;;14.30;13.60;;;;;;;;;;2614152;54;20408;-73
2023/09/16 09:48:36;;;;;;;15.20;14.20;;;;;;;;;;2614836;39;20807;-73
2023/09/16 09:54:10;;;;;;;13.37;12.60;;;;;;;;;;2614881;54;20398;-74
2023/09/16 09:59:41;;;;;;;14.97;13.87;;;;;;;;;;2613520;54;20518;-75
2023/09/16 10:05:15;;;;;;;15.40;14.50;;;;;;;;;;2615104;54;20380;-75
2023/09/16 10:10:47;;;;;;;13.37;12.77;;;;;;;;;;2614958;54;20427;-75
2023/09/16 10:16:17;;;;;;;14.60;13.80;;;;;;;;;;2614148;54;20839;-74
2023/09/16 10:21:47;;;;;;;14.27;13.40;;;;;;;;;;2613460;54;21059;-75
2023/09/16 10:33:24;;;;;;;14.77;13.97;;;;;;;;;;2615060;54;20563;-73
2023/09/16 10:38:55;;;;;;;14.37;13.30;;;;;;;;;;2614563;54;20383;-73
2023/09/16 10:44:24;;;;;;;14.30;13.30;;;;;;;;;;2614185;54;20418;-74
2023/09/16 10:49:54;;;;;;;14.23;13.50;;;;;;;;;;2614318;54;20414;-73
2023/09/16 10:55:26;;;;;;;15.03;14.23;;;;;;;;;;2613669;54;20533;-72
2023/09/16 11:00:58;;;;;;;15.40;14.20;;;;;;;;;;2614481;39;20856;-73
2023/09/16 11:06:28;;;;;;;14.43;13.57;;;;;;;;;;2614052;54;20479;-76
2023/09/16 11:11:58;;;;;;;15.20;14.40;;;;;;;;;;2614774;54;20492;-78
2023/09/16 11:17:28;;;;;;;13.70;13.00;;;;;;;;;;2612907;54;20390;-77
2023/09/16 11:23:01;;;;;;;15.23;14.10;;;;;;;;;;2613476;54;21003;-77
2023/09/16 11:28:31;;;;;;;14.43;13.63;;;;;;;;;;2615207;39;20880;-76
2023/09/16 11:34:01;;;;;;;13.27;12.67;;;;;;;;;;2615513;54;20978;-75
2023/09/16 11:39:43;;;;;;;14.37;13.60;;;;;;;;;;2614404;54;20368;-73
2023/09/16 11:45:17;;;;;;;17.40;16.40;;;;;;;;;;2614268;39;20438;-74
2023/09/16 11:50:46;;;;;;;13.50;12.80;;;;;;;;;;2614192;54;20930;-75
2023/09/16 11:56:16;;;;;;;15.87;14.47;;;;;;;;;;2614693;54;20399;-74
2023/09/16 12:01:46;;;;;;;15.90;14.90;;;;;;;;;;2614604;54;20910;-74
2023/09/16 12:07:15;;;;;;;15.27;14.47;;;;;;;;;;2614551;54;20500;-74
2023/09/16 12:12:50;;;;;;;14.40;13.70;;;;;;;;;;2614723;54;20375;-74
2023/09/16 12:18:20;;;;;;;14.57;13.87;;;;;;;;;;2615667;54;20451;-74
2023/09/16 12:23:51;;;;;;;15.87;14.33;;;;;;;;;;2616042;54;20366;-74
2023/09/16 12:26:32;;;;;;;16.17;15.27;;;;;;;;;;2616032;39;20698;-74
2023/09/16 12:28:58;;;;;;;16.40;15.40;;;;;;;;;;2615975;54;20435;-75
2023/09/16 12:34:28;;;;;;;16.50;15.50;;;;;;;;;;2615433;54;20386;-75
2023/09/16 12:39:58;;;;;;;17.00;16.00;;;;;;;;;;2615925;39;20885;-74
2023/09/16 12:45:28;;;;;;;16.33;15.33;;;;;;;;;;2616042;39;20781;-76
2023/09/16 12:50:59;;;;;;;17.03;16.10;;;;;;;;;;2615286;54;20503;-76
2023/09/16 12:56:30;;;;;;;15.97;15.00;;;;;;;;;;2615345;54;20382;-76
2023/09/16 13:02:02;;;;;;;16.03;15.23;;;;;;;;;;2615077;54;20956;-74
2023/09/16 13:07:32;;;;;;;16.63;15.73;;;;;;;;;;2615709;54;20374;-74
2023/09/16 13:13:02;;;;;;;15.50;14.70;;;;;;;;;;2615356;54;20427;-75
2023/09/16 13:18:31;;;;;;;15.57;14.77;;;;;;;;;;2615576;54;20443;-76
2023/09/16 13:24:01;;;;;;;16.43;15.53;;;;;;;;;;2616065;54;20435;-76
2023/09/16 13:26:31;;;;;;;15.40;14.20;;;;;;;;;;2614558;54;20985;-77
2023/09/16 13:28:58;;;;;;;17.07;16.17;;;;;;;;;;2615971;54;20410;-74
2023/09/16 13:34:41;;;;;;;16.30;15.40;;;;;;;;;;2615448;54;20414;-78
2023/09/16 13:40:13;;;;;;;16.50;15.60;;;;;;;;;;2614984;54;20463;-75
2023/09/16 13:45:43;;;;;;;17.40;16.50;;;;;;;;;;2614870;54;20367;-74
2023/09/16 13:51:13;;;;;;;16.90;15.90;;;;;;;;;;2615114;39;20778;-74
2023/09/16 13:56:43;;;;;;;15.73;14.90;;;;;;;;;;2615154;39;20791;-74
2023/09/16 14:02:13;;;;;;;16.23;15.33;;;;;;;;;;2615667;54;20412;-74
2023/09/16 14:07:42;;;;;;;16.40;15.60;;;;;;;;;;2615856;54;20407;-76
2023/09/16 14:10:30;;;;;;;15.80;15.00;;;;;;;;;;2616226;54;20435;-75
2023/09/16 14:13:15;;;;;;;14.90;14.20;;;;;;;;;;2616186;54;20535;-75
2023/09/16 14:18:45;;;;;;;16.50;15.60;;;;;;;;;;2616568;39;20893;-75
2023/09/16 14:24:14;;;;;;;17.10;16.20;;;;;;;;;;2616258;54;20390;-75
2023/09/16 14:29:44;;;;;;;16.77;15.87;;;;;;;;;;2616010;54;20547;-75
2023/09/16 14:35:14;;;;;;;16.43;15.63;;;;;;;;;;2615456;54;20394;-74
2023/09/16 14:40:44;;;;;;;15.50;14.70;;;;;;;;;;2615768;39;20775;-75
2023/09/16 14:46:15;;;;;;;15.60;14.50;;;;;;;;;;2615244;54;20543;-74
2023/09/16 14:51:47;;;;;;;13.63;12.73;;;;;;;;;;2615045;54;20479;-75
2023/09/16 14:57:17;;;;;;;15.50;14.60;;;;;;;;;;2615246;39;20489;-75
2023/09/16 15:02:47;;;;;;;17.07;15.90;;;;;;;;;;2615669;54;20415;-75
2023/09/16 15:08:17;;;;;;;15.57;14.70;;;;;;;;;;2614755;54;20909;-74
2023/09/16 15:13:46;;;;;;;15.00;14.20;;;;;;;;;;2615083;54;20485;-75
2023/09/16 15:19:16;;;;;;;16.93;15.60;;;;;;;;;;2614877;54;20419;-75
2023/09/16 15:24:46;;;;;;;15.60;14.80;;;;;;;;;;2615284;54;20490;-73
2023/09/16 15:33:50;;;;;;;15.50;14.70;;;;;;;;;;2615818;54;20511;-80
2023/09/16 15:39:20;;;;;;;15.47;14.70;;;;;;;;;;2622469;54;20411;-77
2023/09/16 15:44:51;;;;;;;15.87;14.87;;;;;;;;;;2621957;54;20528;-82
2023/09/16 15:50:21;;;;;;;17.57;16.30;;;;;;;;;;2621754;46;20430;-78
2023/09/16 15:55:52;;;;;;;15.10;14.30;;;;;;;;;;2622219;54;20390;-80
2023/09/16 16:01:24;;;;;;;16.03;15.03;;;;;;;;;;2615758;54;20447;-82
2023/09/16 16:06:55;;;;;;;16.47;15.60;;;;;;;;;;2614898;54;20395;-80
2023/09/16 16:12:24;;;;;;;15.90;15.10;;;;;;;;;;2616193;54;20403;-82
2023/09/16 16:17:54;;;;;;;16.33;15.43;;;;;;;;;;2615596;54;20410;-81
2023/09/16 16:23:24;;;;;;;15.70;14.70;;;;;;;;;;2615673;54;20419;-80
2023/09/16 16:28:54;;;;;;;16.20;15.20;;;;;;;;;;2615367;54;20390;-80
2023/09/16 16:34:23;;;;;;;16.30;15.40;;;;;;;;;;2615487;39;20490;-81
2023/09/16 16:39:53;;;;;;;16.27;15.27;;;;;;;;;;2619181;54;20387;-78
2023/09/16 16:45:23;;;;;;;16.27;15.37;;;;;;;;;;2615272;54;20379;-79
2023/09/16 16:50:53;;;;;;;16.73;15.63;;;;;;;;;;2615426;54;20403;-81
2023/09/16 16:56:24;;;;;;;17.33;16.20;;;;;;;;;;2616512;54;20430;-79
2023/09/16 17:01:54;;;;;;;18.57;17.07;;;;;;;;;;2613618;54;20978;-80
2023/09/16 17:07:24;;;;;;;22.30;20.73;;;;;;;;;;2615824;54;20395;-80
2023/09/16 17:12:53;;;;;;;18.30;17.00;;;;;;;;;;2616572;54;20423;-87
2023/09/16 17:18:23;;;;;;;18.83;17.07;;;;;;;;;;2616909;54;20440;-81
2023/09/16 17:23:53;;;;;;;19.50;18.10;;;;;;;;;;2615945;54;20386;-83
2023/09/16 17:29:23;;;;;;;17.57;16.37;;;;;;;;;;2615311;54;20398;-82
2023/09/16 17:34:52;;;;;;;17.03;15.70;;;;;;;;;;2615566;54;20402;-83
2023/09/16 17:40:22;;;;;;;20.27;18.40;;;;;;;;;;2615590;54;20496;-82
2023/09/16 17:45:53;;;;;;;18.10;16.70;;;;;;;;;;2616158;54;20440;-84
2023/09/16 17:51:23;;;;;;;19.17;17.87;;;;;;;;;;2616370;54;20440;-78
2023/09/16 17:56:53;;;;;;;17.83;16.40;;;;;;;;;;2615894;39;20761;-77
2023/09/16 18:02:22;;;;;;;17.03;15.83;;;;;;;;;;2615413;54;21000;-78
2023/09/16 18:07:52;;;;;;;17.57;16.37;;;;;;;;;;2615699;54;20406;-76
2023/09/16 18:13:22;;;;;;;19.17;17.87;;;;;;;;;;2615997;39;20826;-77
2023/09/16 18:18:53;;;;;;;17.77;16.37;;;;;;;;;;2614639;54;20504;-78
2023/09/16 18:24:23;;;;;;;19.10;17.47;;;;;;;;;;2616346;39;21313;-76
2023/09/16 18:36:00;;;;;;;18.23;16.87;;;;;;;;;;2615381;54;20412;-78
2023/09/16 18:41:30;;;;;;;19.53;18.03;;;;;;;;;;2615039;54;20381;-77
2023/09/16 18:47:00;;;;;;;16.07;14.80;;;;;;;;;;2615346;54;20383;-76
2023/09/16 18:52:30;;;;;;;12.13;11.20;;;;;;;;;;2614223;54;20384;-76
2023/09/16 18:57:59;;;;;;;10.03;9.23;;;;;;;;;;2614733;54;20452;-79
2023/09/16 19:03:29;;;;;;;12.30;10.13;;;;;;;;;;2616428;54;21019;-79
2023/09/16 19:08:59;;;;;;;12.60;9.67;;;;;;;;;;2615528;39;20866;-80
2023/09/16 19:14:29;;;;;;;11.93;10.73;;;;;;;;;;2614740;54;20432;-79
2023/09/16 19:19:59;;;;;;;11.97;11.07;;;;;;;;;;2609447;54;20446;-79
2023/09/16 19:25:28;;;;;;;13.30;12.30;;;;;;;;;;2612222;54;20382;-79
2023/09/16 19:34:36;;;;;;;13.70;12.37;;;;;;;;;;2614065;54;20423;-79
2023/09/16 19:40:06;;;;;;;13.43;12.20;;;;;;;;;;2613739;54;20407;-79
2023/09/16 19:45:35;;;;;;;13.47;12.37;;;;;;;;;;2614426;54;20467;-80
2023/09/16 19:51:05;;;;;;;18.27;16.37;;;;;;;;;;2614905;54;20378;-81
2023/09/16 19:56:35;;;;;;;24.20;22.00;;;;;;;;;;2613582;54;20933;-80
2023/09/16 20:02:05;;;;;;;20.33;18.53;;;;;;;;;;2611752;54;20456;-79
2023/09/16 20:07:34;;;;;;;20.00;18.07;;;;;;;;;;2614568;54;20367;-79
2023/09/16 20:13:04;;;;;;;22.37;20.17;;;;;;;;;;2615133;47;20491;-75
2023/09/16 20:18:34;;;;;;;22.07;20.07;;;;;;;;;;2613890;31;20884;-77
2023/09/16 20:24:04;;;;;;;24.60;22.30;;;;;;;;;;2614313;54;20393;-78
2023/09/16 20:29:36;;;;;;;26.90;24.30;;;;;;;;;;2614362;54;20383;-77
2023/09/16 20:35:06;;;;;;;30.30;27.17;;;;;;;;;;2613607;54;20473;-77
2023/09/16 20:40:36;;;;;;;19.97;17.90;;;;;;;;;;2614862;54;20842;-77
2023/09/16 20:46:06;;;;;;;25.47;22.87;;;;;;;;;;2614707;54;20853;-76
2023/09/16 20:51:36;;;;;;;46.10;41.37;;;;;;;;;;2615282;54;20386;-77
2023/09/16 20:57:06;;;;;;;54.20;48.60;;;;;;;;;;2615236;54;20940;-77
2023/09/16 21:02:36;;;;;;;68.80;61.40;;;;;;;;;;2614830;54;20383;-76
2023/09/16 21:08:05;;;;;;;60.47;54.13;;;;;;;;;;2615580;31;20952;-78
2023/09/16 21:13:35;;;;;;;55.77;49.93;;;;;;;;;;2615216;54;20392;-76
2023/09/16 21:19:05;;;;;;;38.17;34.17;;;;;;;;;;2615782;54;20925;-76
2023/09/16 21:24:34;;;;;;;33.40;29.10;;;;;;;;;;2613407;54;20411;-76
2023/09/16 21:30:04;;;;;;;32.00;28.60;;;;;;;;;;2612883;39;20747;-75
2023/09/16 21:39:14;;;;;;;30.17;27.07;;;;;;;;;;2615436;54;20425;-75
2023/09/16 21:44:45;;;;;;;31.10;27.70;;;;;;;;;;2613000;54;20383;-75
2023/09/16 21:50:15;;;;;;;34.70;30.73;;;;;;;;;;2614991;54;20507;-76
2023/09/16 21:55:44;;;;;;;34.23;30.63;;;;;;;;;;2615146;54;20391;-79
2023/09/16 22:01:14;;;;;;;32.23;28.83;;;;;;;;;;2613008;54;21351;-76
2023/09/16 22:06:43;;;;;;;37.60;31.63;;;;;;;;;;2612733;54;20391;-76
2023/09/16 22:12:13;;;;;;;33.57;30.23;;;;;;;;;;2611159;54;20370;-76
2023/09/16 22:17:43;;;;;;;34.00;30.30;;;;;;;;;;2613702;54;20395;-76
2023/09/16 22:23:13;;;;;;;31.33;28.17;;;;;;;;;;2611575;54;20965;-76
2023/09/16 22:28:43;;;;;;;30.43;27.47;;;;;;;;;;2612415;54;20518;-76
2023/09/16 22:34:13;;;;;;;32.20;28.70;;;;;;;;;;2612328;54;21248;-77
2023/09/16 22:39:42;;;;;;;33.17;28.47;;;;;;;;;;2612963;54;20379;-76
2023/09/16 22:45:12;;;;;;;34.00;30.50;;;;;;;;;;2612730;54;20952;-76
2023/09/16 22:50:42;;;;;;;34.03;27.10;;;;;;;;;;2612571;54;20383;-77
2023/09/16 22:56:12;;;;;;;31.90;28.47;;;;;;;;;;2612512;54;20503;-76
2023/09/16 23:01:42;;;;;;;30.83;27.63;;;;;;;;;;2612035;54;20396;-76
2023/09/16 23:07:12;;;;;;;30.87;27.60;;;;;;;;;;2611563;54;20387;-75
2023/09/16 23:12:42;;;;;;;30.97;27.50;;;;;;;;;;2614743;54;20957;-74
2023/09/16 23:18:11;;;;;;;33.73;26.40;;;;;;;;;;2612266;54;20387;-76
2023/09/16 23:23:41;;;;;;;29.07;26.07;;;;;;;;;;2614377;54;20374;-75
2023/09/16 23:29:11;;;;;;;28.90;25.97;;;;;;;;;;2613380;39;20946;-75
2023/09/16 23:34:40;;;;;;;39.07;27.80;;;;;;;;;;2612339;54;20403;-75
2023/09/16 23:40:10;;;;;;;30.87;27.60;;;;;;;;;;2610955;54;21086;-78
2023/09/16 23:45:40;;;;;;;30.03;25.50;;;;;;;;;;2610628;39;20785;-79
2023/09/16 23:51:09;;;;;;;34.80;26.60;;;;;;;;;;2611467;54;20391;-80
2023/09/16 23:56:39;;;;;;;28.23;25.33;;;;;;;;;;2612021;54;20432;-80
